Time;durP1;ratioP1;P1;durP2;ratioP2;P2;SDS_P1;SDS_P2;PMS_P1;PMS_P2;Temp;Humidity;BMP_temperature;BMP_pressure;BME280_temperature;BME280_humidity;BME280_pressure;Samples;Min_cycle;Max_cycle;Signal;HPM_P1;HPM_P2
2021/08/30 00:01:49;;;;;;;38.70;11.53;;;14.00;99.70;;;;;;5052180;28;20483;-67
2021/08/30 00:04:17;;;;;;;37.70;10.10;;;14.10;99.70;;;;;;5052055;28;20474;-67
2021/08/30 00:06:44;;;;;;;38.10;11.87;;;14.00;99.70;;;;;;5051142;28;20440;-67
2021/08/30 00:09:12;;;;;;;37.77;10.63;;;14.10;99.70;;;;;;5051659;28;20484;-67
2021/08/30 00:11:39;;;;;;;36.97;9.50;;;14.00;99.70;;;;;;5052181;28;20540;-65
2021/08/30 00:14:06;;;;;;;38.27;10.30;;;14.10;99.70;;;;;;5051886;28;21004;-67
2021/08/30 00:16:33;;;;;;;38.10;11.07;;;14.10;99.70;;;;;;5051850;28;20809;-66
2021/08/30 00:19:00;;;;;;;38.60;12.40;;;14.10;99.70;;;;;;5051644;28;20443;-68
2021/08/30 00:21:28;;;;;;;37.70;9.77;;;14.00;99.70;;;;;;5051502;28;20495;-66
2021/08/30 00:23:55;;;;;;;37.23;11.07;;;14.00;99.70;;;;;;5052032;28;20443;-66
2021/08/30 00:26:21;;;;;;;37.90;9.50;;;14.00;99.70;;;;;;5051758;28;20448;-66
2021/08/30 00:28:48;;;;;;;39.00;10.33;;;14.00;99.70;;;;;;5051792;28;20479;-68
2021/08/30 00:31:15;;;;;;;38.97;11.83;;;14.00;99.70;;;;;;5051118;28;20478;-66
2021/08/30 00:33:41;;;;;;;42.20;12.30;;;14.00;99.70;;;;;;5051139;28;20444;-66
2021/08/30 00:36:09;;;;;;;39.50;12.63;;;14.00;99.70;;;;;;5049812;28;20444;-68
2021/08/30 00:38:37;;;;;;;43.23;15.90;;;14.00;99.70;;;;;;5049958;28;20440;-67
2021/08/30 00:41:04;;;;;;;42.57;14.83;;;14.10;99.70;;;;;;5049275;28;20467;-67
2021/08/30 00:43:31;;;;;;;42.13;12.60;;;14.10;99.70;;;;;;5050816;28;20432;-66
2021/08/30 00:45:59;;;;;;;40.87;14.20;;;14.10;99.70;;;;;;5049799;28;20474;-67
2021/08/30 00:48:25;;;;;;;41.57;15.00;;;14.10;99.70;;;;;;5049805;28;20444;-67
2021/08/30 00:50:52;;;;;;;41.80;15.50;;;14.10;99.70;;;;;;5049576;28;20466;-68
2021/08/30 00:53:19;;;;;;;45.20;17.77;;;14.20;99.70;;;;;;5050233;28;20432;-68
2021/08/30 00:55:47;;;;;;;42.53;13.20;;;14.20;99.70;;;;;;5049461;28;20451;-67
2021/08/30 00:58:14;;;;;;;43.00;18.10;;;14.20;99.70;;;;;;5049629;28;20448;-67
2021/08/30 01:00:41;;;;;;;41.97;14.57;;;14.20;99.70;;;;;;5049009;28;20550;-67
2021/08/30 01:03:07;;;;;;;41.57;14.30;;;14.10;99.70;;;;;;5049615;28;20932;-66
2021/08/30 01:05:35;;;;;;;45.27;15.77;;;14.10;99.70;;;;;;5049680;28;20444;-66
2021/08/30 01:08:08;;;;;;;41.77;12.40;;;14.10;99.70;;;;;;5049437;28;20965;-66
2021/08/30 01:10:44;;;;;;;44.10;17.20;;;14.10;99.70;;;;;;5049223;28;20480;-67
2021/08/30 01:13:17;;;;;;;43.83;17.03;;;14.10;99.70;;;;;;5049840;28;20440;-68
2021/08/30 01:15:45;;;;;;;41.83;15.93;;;14.10;99.70;;;;;;5047761;28;21193;-67
2021/08/30 01:18:16;;;;;;;41.40;16.13;;;14.10;99.70;;;;;;5049144;28;20435;-66
2021/08/30 01:20:56;;;;;;;41.20;14.80;;;14.10;99.70;;;;;;5047435;28;20464;-67
2021/08/30 01:23:24;;;;;;;43.70;14.83;;;14.20;99.70;;;;;;5047484;28;20501;-66
2021/08/30 01:25:52;;;;;;;43.30;17.03;;;14.20;99.70;;;;;;5049443;28;20443;-66
2021/08/30 01:28:22;;;;;;;43.47;15.10;;;14.20;99.70;;;;;;5047978;28;20463;-66
2021/08/30 01:30:50;;;;;;;43.43;16.40;;;14.20;99.70;;;;;;5084732;22;20496;-68
2021/08/30 01:33:19;;;;;;;42.90;16.97;;;14.20;99.70;;;;;;5030361;28;20440;-68
2021/08/30 01:35:47;;;;;;;43.93;19.03;;;14.20;99.70;;;;;;5030608;28;20467;-68
2021/08/30 01:38:14;;;;;;;44.37;17.07;;;14.20;99.70;;;;;;5030428;28;20868;-68
2021/08/30 01:40:41;;;;;;;43.43;17.20;;;14.20;99.70;;;;;;5030231;28;20464;-68
2021/08/30 01:43:10;;;;;;;45.53;19.40;;;14.10;99.70;;;;;;5030695;28;20448;-68
2021/08/30 01:45:38;;;;;;;44.40;18.10;;;14.20;99.70;;;;;;5030098;28;20441;-68
2021/08/30 01:48:06;;;;;;;42.17;14.50;;;14.20;99.70;;;;;;5030453;28;20449;-68
2021/08/30 01:50:37;;;;;;;41.80;16.40;;;14.20;99.70;;;;;;5029534;28;20489;-68
2021/08/30 01:53:06;;;;;;;45.30;16.77;;;14.20;99.70;;;;;;5030322;28;20969;-68
2021/08/30 01:55:38;;;;;;;42.73;14.03;;;14.20;99.70;;;;;;5030262;28;20455;-68
2021/08/30 02:00:51;;;;;;;45.40;18.13;;;14.20;99.70;;;;;;5030136;28;20946;-68
2021/08/30 02:03:20;;;;;;;43.40;17.50;;;14.20;99.70;;;;;;5030285;28;20455;-68
2021/08/30 02:05:50;;;;;;;43.20;15.80;;;14.20;99.70;;;;;;5030138;28;20445;-68
2021/08/30 02:08:19;;;;;;;43.07;15.87;;;14.20;99.70;;;;;;5030473;28;20444;-68
2021/08/30 02:10:47;;;;;;;43.70;16.90;;;14.20;99.70;;;;;;5029561;28;20488;-68
2021/08/30 02:13:15;;;;;;;42.10;13.87;;;14.20;99.70;;;;;;5030272;28;20448;-68
2021/08/30 02:15:43;;;;;;;40.67;12.03;;;14.20;99.70;;;;;;5029835;28;20470;-68
2021/08/30 02:18:18;;;;;;;42.80;17.53;;;14.20;99.70;;;;;;5030091;28;20498;-68
2021/08/30 02:20:53;;;;;;;43.13;15.80;;;14.20;99.70;;;;;;5029722;28;20460;-68
2021/08/30 02:23:23;;;;;;;44.37;13.93;;;14.20;99.70;;;;;;5030081;28;20967;-68
2021/08/30 02:25:53;;;;;;;40.80;15.23;;;14.10;99.70;;;;;;5029806;28;20457;-68
2021/08/30 02:28:22;;;;;;;40.57;10.00;;;14.20;99.70;;;;;;5030038;28;20820;-68
2021/08/30 02:30:51;;;;;;;42.37;11.67;;;14.20;99.70;;;;;;5032136;28;20512;-68
2021/08/30 02:33:18;;;;;;;42.33;13.00;;;14.10;99.70;;;;;;5034019;28;20440;-68
2021/08/30 02:35:47;;;;;;;39.00;10.10;;;14.10;99.70;;;;;;5034123;28;20448;-68
2021/08/30 02:38:17;;;;;;;40.10;13.47;;;14.20;99.70;;;;;;5033681;28;20452;-68
2021/08/30 02:40:44;;;;;;;43.40;13.63;;;14.20;99.70;;;;;;5033794;28;20463;-68
2021/08/30 02:43:11;;;;;;;42.60;11.60;;;14.20;99.70;;;;;;5033531;28;20486;-68
2021/08/30 02:45:39;;;;;;;43.93;11.27;;;14.10;99.70;;;;;;5033994;28;20763;-68
2021/08/30 02:48:07;;;;;;;43.30;13.70;;;14.20;99.70;;;;;;5033506;28;20463;-68
2021/08/30 02:50:35;;;;;;;41.00;12.27;;;14.20;99.70;;;;;;5032985;28;20999;-68
2021/08/30 02:53:02;;;;;;;39.47;12.07;;;14.10;99.70;;;;;;5033619;28;20448;-68
2021/08/30 02:55:30;;;;;;;40.57;13.83;;;14.10;99.70;;;;;;5033701;28;20940;-68
2021/08/30 02:57:58;;;;;;;38.83;11.93;;;14.20;99.70;;;;;;5033391;28;20963;-68
2021/08/30 03:00:25;;;;;;;41.17;14.57;;;14.10;99.70;;;;;;5033476;28;20471;-68
2021/08/30 03:02:53;;;;;;;39.67;14.50;;;14.10;99.70;;;;;;5033231;28;20451;-68
2021/08/30 03:05:21;;;;;;;40.33;13.53;;;14.10;99.70;;;;;;5033561;28;20875;-68
2021/08/30 03:07:49;;;;;;;39.13;12.20;;;14.10;99.70;;;;;;5033238;28;20456;-68
2021/08/30 03:10:17;;;;;;;43.63;16.10;;;14.10;99.70;;;;;;5033136;28;20925;-68
2021/08/30 03:12:46;;;;;;;40.77;13.73;;;14.10;99.70;;;;;;5033293;28;20448;-68
2021/08/30 03:15:17;;;;;;;38.47;13.60;;;14.10;99.70;;;;;;5033154;28;20436;-68
2021/08/30 03:17:46;;;;;;;39.60;13.50;;;14.10;99.70;;;;;;5033211;28;20437;-68
2021/08/30 03:20:18;;;;;;;40.00;15.33;;;14.10;99.70;;;;;;5032847;28;20456;-68
2021/08/30 03:22:45;;;;;;;40.03;13.87;;;14.00;99.70;;;;;;5033188;28;20502;-68
2021/08/30 03:25:15;;;;;;;39.50;13.00;;;14.10;99.70;;;;;;5032910;28;20486;-68
2021/08/30 03:27:45;;;;;;;38.30;12.03;;;14.10;99.70;;;;;;5032988;28;20452;-68
2021/08/30 03:30:15;;;;;;;40.00;13.70;;;14.10;99.70;;;;;;5032313;28;20495;-68
2021/08/30 03:32:43;;;;;;;39.43;15.33;;;14.10;99.70;;;;;;5033047;28;20825;-68
2021/08/30 03:35:12;;;;;;;39.07;14.90;;;14.10;99.70;;;;;;5032812;28;20448;-68
2021/08/30 03:37:39;;;;;;;39.57;15.93;;;14.10;99.70;;;;;;5032930;28;20445;-68
2021/08/30 03:40:07;;;;;;;36.30;8.97;;;14.10;99.70;;;;;;5032466;28;20472;-68
2021/08/30 03:42:35;;;;;;;38.47;8.30;;;14.10;99.70;;;;;;5032936;28;20448;-68
2021/08/30 03:45:04;;;;;;;39.50;11.17;;;14.00;99.70;;;;;;5032660;28;20444;-68
2021/08/30 03:47:32;;;;;;;38.20;12.93;;;14.00;99.70;;;;;;5032888;28;20448;-68
2021/08/30 03:50:00;;;;;;;41.70;21.00;;;14.10;99.70;;;;;;5031444;28;20495;-68
2021/08/30 03:52:28;;;;;;;44.63;21.07;;;14.10;99.70;;;;;;5032647;28;20503;-68
2021/08/30 03:54:55;;;;;;;44.70;22.60;;;14.10;99.70;;;;;;5032751;28;20445;-68
2021/08/30 03:57:23;;;;;;;44.60;24.23;;;14.00;99.70;;;;;;5032405;28;20470;-68
2021/08/30 03:59:57;;;;;;;45.97;25.90;;;14.00;99.70;;;;;;5032201;28;20464;-68
2021/08/30 04:02:27;;;;;;;45.47;23.13;;;14.10;99.70;;;;;;5032177;28;20944;-68
2021/08/30 04:04:55;;;;;;;45.53;22.70;;;14.10;99.70;;;;;;5032633;28;20463;-68
2021/08/30 04:07:23;;;;;;;42.70;21.17;;;14.10;99.70;;;;;;5032222;28;20445;-68
2021/08/30 04:09:51;;;;;;;44.70;23.00;;;14.10;99.70;;;;;;5032020;28;20483;-68
2021/08/30 04:12:19;;;;;;;45.80;22.63;;;14.10;99.70;;;;;;5032435;28;20452;-68
2021/08/30 04:14:47;;;;;;;47.20;24.40;;;14.10;99.70;;;;;;5032402;28;20467;-68
2021/08/30 04:17:14;;;;;;;48.47;25.80;;;14.10;99.70;;;;;;5032124;28;20959;-68
2021/08/30 04:19:42;;;;;;;45.07;22.90;;;14.10;99.70;;;;;;5032259;28;20514;-68
2021/08/30 04:22:09;;;;;;;44.43;24.10;;;14.10;99.70;;;;;;5032242;28;20502;-68
2021/08/30 04:24:36;;;;;;;45.60;24.67;;;14.10;99.70;;;;;;5032356;28;20456;-68
2021/08/30 04:27:03;;;;;;;45.33;22.93;;;14.10;99.70;;;;;;5032017;28;20815;-68
2021/08/30 04:29:31;;;;;;;46.00;24.93;;;14.10;99.70;;;;;;5031444;28;20936;-68
2021/08/30 04:31:59;;;;;;;47.70;25.50;;;14.10;99.70;;;;;;5032128;28;20451;-68
2021/08/30 04:34:25;;;;;;;47.37;23.57;;;14.10;99.70;;;;;;5031717;28;20467;-68
2021/08/30 04:36:53;;;;;;;44.90;22.70;;;14.10;99.70;;;;;;5031810;28;20455;-68
2021/08/30 04:39:20;;;;;;;47.77;25.40;;;14.10;99.70;;;;;;5031316;28;20451;-68
2021/08/30 04:41:47;;;;;;;52.10;26.43;;;14.10;99.70;;;;;;5031831;28;20963;-67
2021/08/30 04:44:15;;;;;;;47.40;21.73;;;14.10;99.70;;;;;;5031710;28;20743;-68
2021/08/30 04:46:42;;;;;;;45.70;20.93;;;14.10;99.70;;;;;;5031879;28;20441;-68
2021/08/30 04:49:08;;;;;;;44.77;19.63;;;14.10;99.70;;;;;;5030355;28;20453;-68
2021/08/30 04:51:35;;;;;;;43.53;17.97;;;14.10;99.70;;;;;;5031577;28;20543;-68
2021/08/30 04:54:03;;;;;;;48.57;22.43;;;14.10;99.70;;;;;;5030779;28;20917;-68
2021/08/30 04:56:30;;;;;;;45.10;22.33;;;14.10;99.70;;;;;;5031656;28;20847;-68
2021/08/30 04:58:57;;;;;;;49.77;24.50;;;14.10;99.70;;;;;;5030905;28;20452;-68
2021/08/30 05:01:25;;;;;;;45.57;17.53;;;14.10;99.70;;;;;;5031474;28;20461;-68
2021/08/30 05:03:52;;;;;;;46.50;20.80;;;14.10;99.70;;;;;;5031115;28;20453;-68
2021/08/30 05:06:18;;;;;;;48.90;22.93;;;14.10;99.70;;;;;;5031329;28;20444;-68
2021/08/30 05:08:45;;;;;;;44.23;20.80;;;14.10;99.70;;;;;;5031218;28;20845;-68
2021/08/30 05:11:13;;;;;;;46.50;20.20;;;14.10;99.70;;;;;;5030995;28;20485;-68
2021/08/30 05:13:40;;;;;;;45.40;22.13;;;14.10;99.70;;;;;;5031293;28;20467;-68
2021/08/30 05:16:06;;;;;;;45.47;22.30;;;14.10;99.70;;;;;;5030808;28;20451;-66
2021/08/30 05:18:33;;;;;;;48.50;24.00;;;14.10;99.70;;;;;;5030011;28;20449;-68
2021/08/30 05:21:00;;;;;;;44.00;21.57;;;14.10;99.70;;;;;;5030845;28;20457;-68
2021/08/30 05:23:27;;;;;;;45.23;19.43;;;14.10;99.70;;;;;;5031212;28;20448;-68
2021/08/30 05:25:54;;;;;;;44.67;19.33;;;14.10;99.70;;;;;;5030847;28;20444;-68
2021/08/30 05:28:22;;;;;;;45.87;22.63;;;14.20;99.70;;;;;;5030966;28;21006;-68
2021/08/30 05:30:48;;;;;;;48.10;22.33;;;14.20;99.70;;;;;;5030310;28;20488;-68
2021/08/30 05:33:15;;;;;;;57.90;22.23;;;14.20;99.70;;;;;;5031049;28;20445;-68
2021/08/30 05:35:42;;;;;;;44.70;16.73;;;14.20;99.70;;;;;;5030468;28;20449;-68
2021/08/30 05:38:08;;;;;;;43.17;16.03;;;14.20;99.70;;;;;;5030859;28;20456;-68
2021/08/30 05:40:35;;;;;;;39.97;13.50;;;14.20;99.70;;;;;;5030363;28;20460;-68
2021/08/30 05:43:02;;;;;;;44.17;17.43;;;14.20;99.70;;;;;;5030472;28;20451;-68
2021/08/30 05:45:31;;;;;;;47.63;18.37;;;14.20;99.70;;;;;;5030500;28;20444;-68
2021/08/30 05:47:58;;;;;;;45.23;19.13;;;14.20;99.70;;;;;;5030556;28;20798;-68
2021/08/30 05:50:24;;;;;;;47.07;20.13;;;14.20;99.70;;;;;;5029351;28;20488;-68
2021/08/30 05:52:51;;;;;;;42.90;17.67;;;14.20;99.70;;;;;;5030299;28;20954;-68
2021/08/30 05:55:19;;;;;;;49.07;24.20;;;14.30;99.70;;;;;;5030401;28;20963;-68
2021/08/30 05:57:46;;;;;;;45.80;20.13;;;14.30;99.70;;;;;;5030169;28;20456;-68
2021/08/30 06:00:14;;;;;;;44.83;15.43;;;14.30;99.70;;;;;;5030241;28;20461;-68
2021/08/30 06:02:42;;;;;;;44.60;16.47;;;14.30;99.70;;;;;;5030134;28;20452;-68
2021/08/30 06:05:09;;;;;;;46.03;19.53;;;14.30;99.70;;;;;;5029593;28;20443;-68
2021/08/30 06:07:38;;;;;;;45.47;18.43;;;14.30;99.70;;;;;;5030039;28;20951;-68
2021/08/30 06:10:05;;;;;;;41.23;12.83;;;14.30;99.70;;;;;;5029710;28;20500;-68
2021/08/30 06:12:32;;;;;;;43.17;10.10;;;14.30;99.70;;;;;;5029879;28;20478;-68
2021/08/30 06:14:58;;;;;;;44.77;12.17;;;14.30;99.70;;;;;;5030067;28;20444;-68
2021/08/30 06:17:25;;;;;;;41.90;10.00;;;14.40;99.70;;;;;;5030167;28;20866;-68
2021/08/30 06:19:53;;;;;;;39.60;6.50;;;14.30;99.70;;;;;;5029765;28;20464;-68
2021/08/30 06:22:20;;;;;;;39.07;8.87;;;14.30;99.70;;;;;;5030115;28;20444;-68
2021/08/30 06:24:48;;;;;;;42.63;8.83;;;14.40;99.70;;;;;;5029932;28;20456;-68
2021/08/30 06:27:15;;;;;;;43.00;9.80;;;14.40;99.70;;;;;;5029835;28;20873;-68
2021/08/30 06:29:42;;;;;;;42.97;10.60;;;14.40;99.70;;;;;;5029289;28;20472;-68
2021/08/30 06:32:09;;;;;;;44.07;8.20;;;14.50;99.70;;;;;;5029901;28;20483;-68
2021/08/30 06:34:35;;;;;;;41.60;7.07;;;14.50;99.70;;;;;;5029744;28;20948;-68
2021/08/30 06:37:04;;;;;;;39.90;6.83;;;14.50;99.70;;;;;;5029810;28;20959;-68
2021/08/30 06:39:31;;;;;;;41.17;7.90;;;14.50;99.70;;;;;;5029456;28;20460;-68
2021/08/30 06:41:58;;;;;;;41.87;8.70;;;14.60;99.70;;;;;;5029948;28;20472;-68
2021/08/30 06:44:24;;;;;;;41.97;8.10;;;14.60;99.70;;;;;;5029667;28;20944;-68
2021/08/30 06:46:51;;;;;;;40.07;6.13;;;14.60;99.70;;;;;;5029849;28;20448;-68
2021/08/30 06:49:18;;;;;;;40.67;6.77;;;14.50;99.70;;;;;;5028696;28;20449;-68
2021/08/30 06:51:44;;;;;;;38.90;6.90;;;14.50;99.70;;;;;;5029807;28;20484;-68
2021/08/30 06:54:12;;;;;;;43.83;7.40;;;14.60;99.70;;;;;;5029757;28;20456;-68
2021/08/30 06:56:39;;;;;;;38.50;6.53;;;14.70;99.70;;;;;;5029517;28;20472;-68
2021/08/30 06:59:06;;;;;;;38.13;6.20;;;14.70;99.70;;;;;;5029572;28;20447;-68
2021/08/30 07:01:32;;;;;;;39.37;8.13;;;14.60;99.70;;;;;;5029393;28;20460;-68
2021/08/30 07:04:01;;;;;;;41.30;7.57;;;14.60;99.70;;;;;;5029795;28;20448;-68
2021/08/30 07:06:28;;;;;;;38.80;6.83;;;14.60;99.70;;;;;;5029364;28;20459;-68
2021/08/30 07:08:54;;;;;;;39.40;6.90;;;14.60;99.70;;;;;;5029527;28;20795;-68
2021/08/30 07:11:22;;;;;;;40.90;7.07;;;14.70;99.70;;;;;;5029274;28;20492;-68
2021/08/30 07:13:49;;;;;;;41.17;6.73;;;14.70;99.70;;;;;;5029761;28;20441;-67
2021/08/30 07:16:16;;;;;;;38.13;6.50;;;14.70;99.70;;;;;;5030887;28;20456;-68
2021/08/30 07:18:43;;;;;;;42.93;7.10;;;14.70;99.70;;;;;;5033200;28;20668;-68
2021/08/30 07:21:09;;;;;;;40.90;6.93;;;14.70;99.70;;;;;;5032962;28;20487;-68
2021/08/30 07:23:37;;;;;;;42.60;7.90;;;14.70;99.70;;;;;;5033281;28;20445;-68
2021/08/30 07:26:04;;;;;;;41.50;7.17;;;14.70;99.70;;;;;;5032928;28;20447;-68
2021/08/30 07:28:32;;;;;;;37.87;6.97;;;14.70;99.70;;;;;;5032863;28;20455;-68
2021/08/30 07:30:59;;;;;;;41.70;8.73;;;14.70;99.70;;;;;;5049805;22;20487;-68
2021/08/30 07:33:26;;;;;;;41.77;6.67;;;14.70;99.70;;;;;;5052686;28;20443;-68
2021/08/30 07:35:52;;;;;;;41.10;7.57;;;14.80;99.70;;;;;;5053078;28;20960;-68
2021/08/30 07:38:19;;;;;;;40.57;7.00;;;14.80;99.70;;;;;;5052613;28;20985;-68
2021/08/30 07:40:46;;;;;;;39.77;6.40;;;14.70;99.70;;;;;;5052483;28;20451;-68
2021/08/30 07:43:13;;;;;;;41.90;7.83;;;14.70;99.70;;;;;;5052263;28;20847;-68
2021/08/30 07:45:41;;;;;;;43.50;7.70;;;14.80;99.70;;;;;;5052307;28;20815;-68
2021/08/30 07:48:08;;;;;;;42.63;6.90;;;14.80;99.70;;;;;;5052325;28;20857;-68
2021/08/30 07:50:34;;;;;;;40.20;6.30;;;14.80;99.70;;;;;;5051585;28;21040;-68
2021/08/30 07:53:01;;;;;;;36.97;6.30;;;14.80;99.70;;;;;;5052333;28;20825;-68
2021/08/30 07:55:29;;;;;;;37.90;6.23;;;14.80;99.70;;;;;;5052478;28;20440;-68
2021/08/30 07:57:56;;;;;;;37.70;7.10;;;14.80;99.70;;;;;;5052328;28;20479;-68
2021/08/30 08:00:22;;;;;;;39.20;6.60;;;14.80;99.70;;;;;;5052280;28;20529;-68
2021/08/30 08:02:51;;;;;;;40.17;6.50;;;14.80;99.70;;;;;;5052354;28;20448;-68
2021/08/30 08:05:18;;;;;;;38.50;6.60;;;14.80;99.70;;;;;;5052159;28;20443;-68
2021/08/30 08:07:45;;;;;;;38.90;6.53;;;14.80;99.70;;;;;;5052228;28;20541;-68
2021/08/30 08:10:12;;;;;;;40.13;7.10;;;14.90;99.70;;;;;;5051754;28;20836;-68
2021/08/30 08:12:39;;;;;;;40.17;6.70;;;14.80;99.70;;;;;;5052056;28;21016;-68
2021/08/30 08:15:06;;;;;;;39.70;6.70;;;14.90;99.70;;;;;;5051949;28;20443;-68
2021/08/30 08:17:34;;;;;;;41.10;7.17;;;14.90;99.70;;;;;;5052119;28;20474;-68
2021/08/30 08:20:02;;;;;;;40.67;7.27;;;14.90;99.70;;;;;;5051597;28;20524;-68
2021/08/30 08:22:30;;;;;;;37.23;6.77;;;15.00;99.70;;;;;;5052015;28;20440;-68
2021/08/30 08:24:58;;;;;;;37.17;6.20;;;14.90;99.70;;;;;;5051702;28;20440;-68
2021/08/30 08:27:25;;;;;;;37.93;6.27;;;14.90;99.70;;;;;;5050883;28;20447;-68
2021/08/30 08:29:52;;;;;;;39.00;6.17;;;14.80;99.70;;;;;;5051281;28;20508;-68
2021/08/30 08:32:19;;;;;;;36.77;6.10;;;14.90;99.70;;;;;;5051817;28;20475;-68
2021/08/30 08:34:45;;;;;;;38.77;6.10;;;14.80;99.70;;;;;;5051816;28;20448;-68
2021/08/30 08:37:13;;;;;;;37.20;6.27;;;14.90;99.70;;;;;;5051550;28;20501;-68
2021/08/30 08:39:40;;;;;;;39.50;6.77;;;14.90;99.70;;;;;;5051481;28;20819;-68
2021/08/30 08:42:07;;;;;;;41.30;7.87;;;14.90;99.70;;;;;;5051564;28;20440;-68
2021/08/30 08:44:34;;;;;;;38.30;6.83;;;14.90;99.70;;;;;;5051517;28;20444;-68
2021/08/30 08:47:01;;;;;;;38.93;6.50;;;14.90;99.70;;;;;;5051373;28;20459;-68
2021/08/30 08:49:28;;;;;;;37.60;7.50;;;14.90;99.70;;;;;;5050512;28;20947;-68
2021/08/30 08:51:55;;;;;;;40.80;6.60;;;15.00;99.70;;;;;;5051029;28;20490;-68
2021/08/30 08:54:23;;;;;;;39.50;7.20;;;15.00;99.70;;;;;;5051295;28;20455;-68
2021/08/30 08:56:50;;;;;;;39.40;6.50;;;15.10;99.70;;;;;;5051276;28;20491;-68
2021/08/30 08:59:16;;;;;;;39.20;6.63;;;15.10;99.70;;;;;;5051112;28;20447;-68
2021/08/30 09:01:43;;;;;;;40.10;6.50;;;15.10;99.70;;;;;;5051001;28;20464;-69
2021/08/30 09:04:10;;;;;;;38.43;6.00;;;15.00;99.70;;;;;;5051277;28;20448;-68
2021/08/30 09:06:40;;;;;;;41.03;5.70;;;14.90;99.70;;;;;;5050940;28;20452;-68
2021/08/30 09:09:10;;;;;;;40.30;8.23;;;15.00;99.70;;;;;;5050540;28;20501;-68
2021/08/30 09:11:39;;;;;;;40.50;7.20;;;15.10;99.70;;;;;;5050815;28;20488;-68
2021/08/30 09:14:15;;;;;;;39.70;6.83;;;15.20;99.70;;;;;;5051127;28;20451;-68
2021/08/30 09:16:43;;;;;;;37.87;6.10;;;15.30;99.70;;;;;;5050777;28;20483;-68
2021/08/30 09:19:11;;;;;;;40.20;6.60;;;15.30;99.70;;;;;;5050767;28;20450;-68
2021/08/30 09:21:43;;;;;;;37.80;6.40;;;15.30;99.70;;;;;;5051146;28;20475;-68
2021/08/30 09:24:11;;;;;;;41.73;7.20;;;15.40;99.70;;;;;;5050923;28;20513;-68
2021/08/30 09:26:49;;;;;;;38.77;6.40;;;15.40;99.70;;;;;;5050935;28;20443;-69
2021/08/30 09:29:18;;;;;;;41.47;8.67;;;15.50;99.70;;;;;;5050557;28;20447;-68
2021/08/30 09:31:56;;;;;;;40.67;6.60;;;15.50;99.70;;;;;;5050007;28;20605;-68
2021/08/30 09:34:27;;;;;;;39.27;7.17;;;15.60;99.70;;;;;;5047329;28;20439;-68
2021/08/30 09:36:54;;;;;;;38.53;6.80;;;15.60;99.70;;;;;;5049290;28;20428;-68
2021/08/30 09:39:20;;;;;;;42.83;8.40;;;15.60;99.70;;;;;;5048564;28;21042;-69
2021/08/30 09:41:48;;;;;;;37.57;6.60;;;15.60;99.70;;;;;;5049395;28;21824;-68
2021/08/30 09:44:23;;;;;;;40.77;7.00;;;15.70;99.70;;;;;;5046606;28;20440;-68
2021/08/30 09:46:50;;;;;;;37.23;7.03;;;15.70;99.70;;;;;;5047224;28;20522;-69
2021/08/30 09:49:17;;;;;;;39.03;6.87;;;15.80;99.70;;;;;;5047851;28;20444;-68
2021/08/30 09:51:43;;;;;;;39.20;6.70;;;15.90;99.70;;;;;;5048759;28;20486;-68
2021/08/30 09:54:12;;;;;;;38.57;6.87;;;15.90;99.70;;;;;;5048615;28;20443;-68
2021/08/30 09:56:40;;;;;;;40.77;6.60;;;15.90;99.70;;;;;;5048901;28;20935;-68
2021/08/30 09:59:09;;;;;;;40.93;5.93;;;15.80;99.70;;;;;;5048552;28;20443;-68
2021/08/30 10:01:38;;;;;;;42.07;6.40;;;15.80;99.70;;;;;;5048972;28;20462;-68
2021/08/30 10:04:06;;;;;;;39.17;5.10;;;15.70;99.70;;;;;;5046357;28;20440;-68
2021/08/30 10:06:35;;;;;;;39.20;5.47;;;15.60;99.70;;;;;;5048985;28;20448;-68
2021/08/30 10:09:02;;;;;;;41.80;6.03;;;15.40;99.70;;;;;;5045771;28;20443;-68
2021/08/30 10:11:29;;;;;;;38.63;5.47;;;15.30;99.70;;;;;;5048757;28;20494;-68
2021/08/30 10:13:57;;;;;;;38.33;5.60;;;15.40;99.70;;;;;;5048518;28;20482;-68
2021/08/30 10:16:25;;;;;;;40.20;7.10;;;15.40;99.70;;;;;;5046382;28;20439;-68
2021/08/30 10:18:55;;;;;;;42.80;7.30;;;15.50;99.70;;;;;;5048450;28;20820;-68
2021/08/30 10:21:22;;;;;;;39.17;7.03;;;15.60;99.70;;;;;;5048491;28;20555;-68
2021/08/30 10:23:49;;;;;;;41.67;8.07;;;15.60;99.70;;;;;;5048629;28;20447;-69
2021/08/30 10:26:16;;;;;;;46.80;8.17;;;15.80;99.70;;;;;;5049186;28;21008;-68
2021/08/30 10:28:45;;;;;;;39.00;6.30;;;15.80;99.70;;;;;;5047152;28;21040;-69
2021/08/30 10:31:20;;;;;;;40.23;7.57;;;15.90;99.70;;;;;;5049228;28;20467;-68
2021/08/30 10:33:53;;;;;;;40.23;7.43;;;15.90;99.70;;;;;;5050051;28;20534;-68
2021/08/30 10:36:22;;;;;;;37.57;6.60;;;15.90;99.70;;;;;;5049629;28;20939;-68
2021/08/30 10:38:59;;;;;;;41.27;7.00;;;16.00;99.70;;;;;;5050225;28;20464;-68
2021/08/30 10:41:31;;;;;;;40.27;7.13;;;15.90;99.70;;;;;;5049859;28;20467;-68
2021/08/30 10:44:11;;;;;;;40.00;6.43;;;16.00;99.70;;;;;;5049847;28;20436;-68
2021/08/30 10:46:40;;;;;;;39.10;8.10;;;16.10;99.70;;;;;;5049685;28;20447;-68
2021/08/30 10:49:16;;;;;;;42.97;7.30;;;16.10;99.70;;;;;;5048958;28;20448;-68
2021/08/30 10:51:44;;;;;;;39.70;6.03;;;16.10;99.70;;;;;;5051986;28;20486;-68
2021/08/30 10:54:13;;;;;;;38.73;5.47;;;15.90;99.70;;;;;;5053618;28;20475;-68
2021/08/30 10:56:41;;;;;;;36.30;4.63;;;15.80;99.70;;;;;;5054245;28;20489;-68
2021/08/30 10:59:09;;;;;;;37.40;4.70;;;15.80;99.70;;;;;;5053444;28;20451;-68
2021/08/30 11:01:38;;;;;;;37.77;5.10;;;15.80;99.70;;;;;;5053870;28;20466;-68
2021/08/30 11:04:06;;;;;;;39.10;6.50;;;15.90;99.70;;;;;;5053661;28;20474;-68
2021/08/30 11:06:38;;;;;;;40.43;6.00;;;15.90;99.70;;;;;;5053451;28;20439;-68
2021/08/30 11:09:04;;;;;;;38.47;5.33;;;16.00;99.70;;;;;;5053410;28;20480;-68
2021/08/30 11:11:32;;;;;;;40.77;7.50;;;16.10;99.70;;;;;;5053513;28;20475;-68
2021/08/30 11:14:02;;;;;;;40.27;6.10;;;16.20;99.70;;;;;;5053754;28;20517;-68
2021/08/30 11:16:30;;;;;;;37.30;5.90;;;16.20;99.70;;;;;;5053590;28;20450;-68
2021/08/30 11:18:59;;;;;;;37.00;5.00;;;16.10;99.70;;;;;;5053030;28;20888;-68
2021/08/30 11:21:37;;;;;;;43.73;5.90;;;16.10;99.70;;;;;;5053135;28;20470;-68
2021/08/30 11:24:06;;;;;;;37.17;5.30;;;16.10;99.70;;;;;;5053322;28;20446;-67
2021/08/30 11:26:35;;;;;;;41.87;5.47;;;16.10;99.70;;;;;;5053261;28;20831;-68
2021/08/30 11:29:06;;;;;;;38.10;5.13;;;16.10;99.70;;;;;;5053241;28;20443;-68
2021/08/30 11:31:39;;;;;;;38.40;5.93;;;16.20;99.70;;;;;;5052887;28;20525;-68
2021/08/30 11:34:07;;;;;;;37.70;5.50;;;16.50;99.70;;;;;;5053018;28;20536;-68
2021/08/30 11:36:48;;;;;;;38.70;5.33;;;16.60;99.70;;;;;;5052748;28;20977;-68
2021/08/30 11:39:16;;;;;;;40.33;6.27;;;16.80;99.70;;;;;;5053077;28;20443;-68
2021/08/30 11:41:44;;;;;;;39.30;4.67;;;16.70;99.70;;;;;;5052595;28;20472;-68
2021/08/30 11:44:13;;;;;;;37.87;4.87;;;16.70;99.70;;;;;;5053120;28;20439;-68
2021/08/30 11:46:45;;;;;;;37.67;4.50;;;16.70;99.70;;;;;;5052596;28;20448;-68
2021/08/30 11:49:12;;;;;;;36.80;4.30;;;16.60;99.70;;;;;;5051956;28;20943;-68
2021/08/30 11:51:40;;;;;;;36.33;4.17;;;16.40;99.70;;;;;;5052453;28;20467;-68
2021/08/30 11:54:15;;;;;;;37.53;4.40;;;16.30;99.70;;;;;;5052420;28;20450;-68
2021/08/30 11:56:50;;;;;;;37.60;4.30;;;16.30;99.70;;;;;;5052085;28;20450;-68
2021/08/30 11:59:25;;;;;;;39.10;4.80;;;16.40;99.70;;;;;;5049904;28;20459;-68
2021/08/30 12:01:52;;;;;;;39.70;5.27;;;16.50;99.70;;;;;;5051691;28;20466;-68
2021/08/30 12:04:19;;;;;;;37.70;5.00;;;16.40;99.70;;;;;;5051869;28;20523;-68
2021/08/30 12:06:50;;;;;;;39.17;4.70;;;16.40;99.70;;;;;;5052292;28;20443;-68
2021/08/30 12:09:18;;;;;;;40.17;4.30;;;16.40;99.70;;;;;;5052032;28;20450;-68
2021/08/30 12:11:50;;;;;;;38.93;5.20;;;16.50;99.70;;;;;;5052101;28;20468;-68
2021/08/30 12:14:17;;;;;;;39.40;4.60;;;16.60;99.70;;;;;;5052261;28;20513;-68
2021/08/30 12:16:46;;;;;;;38.33;4.90;;;16.70;99.70;;;;;;5051932;28;20452;-69
2021/08/30 12:19:13;;;;;;;39.43;5.00;;;16.60;99.70;;;;;;5048507;28;20447;-69
2021/08/30 12:21:41;;;;;;;38.07;4.60;;;16.50;99.70;;;;;;5050468;28;20464;-68
2021/08/30 12:24:10;;;;;;;36.30;4.67;;;16.40;99.70;;;;;;5052620;28;20444;-69
2021/08/30 12:26:40;;;;;;;37.37;5.10;;;16.40;99.70;;;;;;5051230;28;20942;-68
2021/08/30 12:29:09;;;;;;;42.10;4.80;;;16.30;99.70;;;;;;5048117;28;20466;-69
2021/08/30 12:31:36;;;;;;;39.30;5.40;;;16.40;99.70;;;;;;5051712;28;20483;-68
2021/08/30 12:34:08;;;;;;;38.67;5.07;;;16.30;99.70;;;;;;5051245;28;20475;-68
2021/08/30 12:36:36;;;;;;;37.60;4.47;;;16.50;99.70;;;;;;5050014;28;20821;-68
2021/08/30 12:39:04;;;;;;;39.77;4.90;;;16.50;99.70;;;;;;5050043;28;20436;-68
2021/08/30 12:41:31;;;;;;;37.50;4.73;;;16.60;99.70;;;;;;5049878;28;20990;-68